sensor_id;sensor_type;location;lat;lon;timestamp;P1;durP1;ratioP1;P2;durP2;ratioP2
40595;SDS011;26304;48.794;9.820;2022-07-29T00:05:05;4.50;;;4.10;;
40595;SDS011;26304;48.794;9.820;2022-07-29T00:10:51;4.63;;;4.28;;
40595;SDS011;26304;48.794;9.820;2022-07-29T00:16:33;4.80;;;4.40;;
40595;SDS011;26304;48.794;9.820;2022-07-29T00:22:16;4.22;;;3.92;;
40595;SDS011;26304;48.794;9.820;2022-07-29T00:27:59;4.40;;;4.10;;
40595;SDS011;26304;48.794;9.820;2022-07-29T00:33:42;5.20;;;4.80;;
40595;SDS011;26304;48.794;9.820;2022-07-29T00:39:24;4.32;;;4.00;;
40595;SDS011;26304;48.794;9.820;2022-07-29T00:45:09;4.28;;;3.90;;
40595;SDS011;26304;48.794;9.820;2022-07-29T00:50:52;4.20;;;3.90;;
40595;SDS011;26304;48.794;9.820;2022-07-29T00:56:34;4.68;;;4.07;;
40595;SDS011;26304;48.794;9.820;2022-07-29T01:02:19;4.15;;;3.85;;
40595;SDS011;26304;48.794;9.820;2022-07-29T01:08:02;4.03;;;3.75;;
40595;SDS011;26304;48.794;9.820;2022-07-29T01:13:44;3.95;;;3.65;;
40595;SDS011;26304;48.794;9.820;2022-07-29T01:19:38;4.47;;;4.18;;
40595;SDS011;26304;48.794;9.820;2022-07-29T01:25:45;3.65;;;3.35;;
40595;SDS011;26304;48.794;9.820;2022-07-29T01:31:42;4.40;;;4.07;;
40595;SDS011;26304;48.794;9.820;2022-07-29T01:37:28;4.40;;;4.10;;
40595;SDS011;26304;48.794;9.820;2022-07-29T01:43:16;4.68;;;4.30;;
40595;SDS011;26304;48.794;9.820;2022-07-29T01:49:05;4.35;;;4.05;;
40595;SDS011;26304;48.794;9.820;2022-07-29T01:54:52;4.15;;;3.83;;
40595;SDS011;26304;48.794;9.820;2022-07-29T02:00:37;4.38;;;4.07;;
40595;SDS011;26304;48.794;9.820;2022-07-29T02:06:23;4.22;;;3.92;;
40595;SDS011;26304;48.794;9.820;2022-07-29T02:12:08;4.07;;;3.78;;
40595;SDS011;26304;48.794;9.820;2022-07-29T02:17:54;4.07;;;3.78;;
40595;SDS011;26304;48.794;9.820;2022-07-29T02:23:41;4.70;;;4.25;;
40595;SDS011;26304;48.794;9.820;2022-07-29T02:29:27;4.22;;;3.80;;
40595;SDS011;26304;48.794;9.820;2022-07-29T02:35:12;4.63;;;4.22;;
40595;SDS011;26304;48.794;9.820;2022-07-29T02:40:58;4.43;;;4.13;;
40595;SDS011;26304;48.794;9.820;2022-07-29T02:46:43;4.75;;;4.25;;
40595;SDS011;26304;48.794;9.820;2022-07-29T02:52:31;6.30;;;4.95;;
40595;SDS011;26304;48.794;9.820;2022-07-29T02:58:19;5.28;;;4.80;;
40595;SDS011;26304;48.794;9.820;2022-07-29T03:04:09;4.90;;;4.45;;
40595;SDS011;26304;48.794;9.820;2022-07-29T03:09:53;5.65;;;5.07;;
40595;SDS011;26304;48.794;9.820;2022-07-29T03:15:38;5.15;;;4.75;;
40595;SDS011;26304;48.794;9.820;2022-07-29T03:21:20;6.13;;;5.63;;
40595;SDS011;26304;48.794;9.820;2022-07-29T03:27:03;5.50;;;5.07;;
40595;SDS011;26304;48.794;9.820;2022-07-29T03:32:48;5.95;;;5.45;;
40595;SDS011;26304;48.794;9.820;2022-07-29T03:38:31;5.03;;;4.53;;
40595;SDS011;26304;48.794;9.820;2022-07-29T03:44:17;5.30;;;5.00;;
40595;SDS011;26304;48.794;9.820;2022-07-29T03:50:05;5.82;;;5.32;;
40595;SDS011;26304;48.794;9.820;2022-07-29T03:55:50;5.82;;;5.40;;
40595;SDS011;26304;48.794;9.820;2022-07-29T04:01:36;5.45;;;4.93;;
40595;SDS011;26304;48.794;9.820;2022-07-29T04:07:21;6.45;;;5.85;;
40595;SDS011;26304;48.794;9.820;2022-07-29T04:13:04;7.82;;;5.28;;
40595;SDS011;26304;48.794;9.820;2022-07-29T04:18:46;6.07;;;5.30;;
40595;SDS011;26304;48.794;9.820;2022-07-29T04:24:30;4.80;;;4.40;;
40595;SDS011;26304;48.794;9.820;2022-07-29T04:30:12;6.50;;;5.43;;
40595;SDS011;26304;48.794;9.820;2022-07-29T04:35:55;5.57;;;5.18;;
40595;SDS011;26304;48.794;9.820;2022-07-29T04:41:39;4.95;;;4.65;;
40595;SDS011;26304;48.794;9.820;2022-07-29T04:47:21;5.65;;;5.15;;
40595;SDS011;26304;48.794;9.820;2022-07-29T04:53:04;5.78;;;5.38;;
40595;SDS011;26304;48.794;9.820;2022-07-29T04:58:47;5.78;;;5.38;;
40595;SDS011;26304;48.794;9.820;2022-07-29T05:04:30;5.55;;;5.15;;
40595;SDS011;26304;48.794;9.820;2022-07-29T05:10:12;5.60;;;5.15;;
40595;SDS011;26304;48.794;9.820;2022-07-29T05:15:56;5.75;;;5.35;;
40595;SDS011;26304;48.794;9.820;2022-07-29T05:21:39;5.72;;;5.22;;
40595;SDS011;26304;48.794;9.820;2022-07-29T05:27:22;5.40;;;4.97;;
40595;SDS011;26304;48.794;9.820;2022-07-29T05:33:06;6.32;;;5.85;;
40595;SDS011;26304;48.794;9.820;2022-07-29T05:38:49;6.13;;;5.68;;
40595;SDS011;26304;48.794;9.820;2022-07-29T05:44:35;5.85;;;5.25;;
40595;SDS011;26304;48.794;9.820;2022-07-29T05:50:19;5.95;;;5.43;;
40595;SDS011;26304;48.794;9.820;2022-07-29T05:56:03;5.53;;;4.60;;
40595;SDS011;26304;48.794;9.820;2022-07-29T06:01:46;4.95;;;4.43;;
40595;SDS011;26304;48.794;9.820;2022-07-29T06:07:30;5.43;;;4.93;;
40595;SDS011;26304;48.794;9.820;2022-07-29T06:13:13;4.13;;;3.90;;
40595;SDS011;26304;48.794;9.820;2022-07-29T06:18:56;4.15;;;3.85;;
40595;SDS011;26304;48.794;9.820;2022-07-29T06:24:40;4.28;;;3.97;;
40595;SDS011;26304;48.794;9.820;2022-07-29T06:30:24;4.60;;;4.25;;
40595;SDS011;26304;48.794;9.820;2022-07-29T06:36:07;4.40;;;4.10;;
40595;SDS011;26304;48.794;9.820;2022-07-29T06:41:51;4.50;;;4.18;;
40595;SDS011;26304;48.794;9.820;2022-07-29T06:47:34;4.10;;;3.80;;
40595;SDS011;26304;48.794;9.820;2022-07-29T06:53:17;3.75;;;3.40;;
40595;SDS011;26304;48.794;9.820;2022-07-29T06:59:01;3.78;;;3.47;;
40595;SDS011;26304;48.794;9.820;2022-07-29T07:04:43;4.05;;;3.75;;
40595;SDS011;26304;48.794;9.820;2022-07-29T07:10:26;3.97;;;3.60;;
40595;SDS011;26304;48.794;9.820;2022-07-29T07:16:10;3.80;;;3.55;;
40595;SDS011;26304;48.794;9.820;2022-07-29T07:21:52;4.30;;;4.00;;
40595;SDS011;26304;48.794;9.820;2022-07-29T07:27:35;3.55;;;3.25;;
40595;SDS011;26304;48.794;9.820;2022-07-29T07:33:19;4.25;;;3.85;;
40595;SDS011;26304;48.794;9.820;2022-07-29T07:39:01;3.55;;;3.28;;
40595;SDS011;26304;48.794;9.820;2022-07-29T07:44:44;4.07;;;3.75;;
40595;SDS011;26304;48.794;9.820;2022-07-29T07:50:30;3.83;;;3.50;;
40595;SDS011;26304;48.794;9.820;2022-07-29T07:56:12;3.90;;;3.63;;
40595;SDS011;26304;48.794;9.820;2022-07-29T08:01:55;4.07;;;3.78;;
40595;SDS011;26304;48.794;9.820;2022-07-29T08:07:38;5.40;;;3.72;;
40595;SDS011;26304;48.794;9.820;2022-07-29T08:13:22;3.75;;;3.40;;
40595;SDS011;26304;48.794;9.820;2022-07-29T08:19:06;3.85;;;3.50;;
40595;SDS011;26304;48.794;9.820;2022-07-29T08:24:49;4.00;;;3.70;;
40595;SDS011;26304;48.794;9.820;2022-07-29T08:30:36;3.53;;;3.22;;
40595;SDS011;26304;48.794;9.820;2022-07-29T08:36:19;3.80;;;3.50;;
40595;SDS011;26304;48.794;9.820;2022-07-29T08:42:04;3.65;;;3.45;;
40595;SDS011;26304;48.794;9.820;2022-07-29T08:47:47;4.30;;;3.47;;
40595;SDS011;26304;48.794;9.820;2022-07-29T08:53:30;3.95;;;3.67;;
40595;SDS011;26304;48.794;9.820;2022-07-29T08:59:15;3.50;;;3.30;;
40595;SDS011;26304;48.794;9.820;2022-07-29T09:04:59;3.30;;;3.10;;
40595;SDS011;26304;48.794;9.820;2022-07-29T09:10:43;3.95;;;3.65;;
40595;SDS011;26304;48.794;9.820;2022-07-29T09:16:29;3.47;;;3.28;;
40595;SDS011;26304;48.794;9.820;2022-07-29T09:22:28;3.20;;;3.00;;
40595;SDS011;26304;48.794;9.820;2022-07-29T09:28:13;3.28;;;3.08;;
40595;SDS011;26304;48.794;9.820;2022-07-29T09:33:58;3.47;;;3.17;;
40595;SDS011;26304;48.794;9.820;2022-07-29T09:39:41;3.80;;;3.50;;
40595;SDS011;26304;48.794;9.820;2022-07-29T09:45:27;3.35;;;3.15;;
40595;SDS011;26304;48.794;9.820;2022-07-29T09:51:18;3.17;;;2.97;;
40595;SDS011;26304;48.794;9.820;2022-07-29T09:57:02;3.38;;;3.17;;
40595;SDS011;26304;48.794;9.820;2022-07-29T10:02:45;3.05;;;2.85;;
40595;SDS011;26304;48.794;9.820;2022-07-29T10:08:30;3.08;;;2.88;;
40595;SDS011;26304;48.794;9.820;2022-07-29T10:14:13;3.20;;;3.00;;
40595;SDS011;26304;48.794;9.820;2022-07-29T10:19:57;3.10;;;2.90;;
40595;SDS011;26304;48.794;9.820;2022-07-29T10:25:41;3.17;;;2.97;;
40595;SDS011;26304;48.794;9.820;2022-07-29T10:31:26;2.97;;;2.78;;
40595;SDS011;26304;48.794;9.820;2022-07-29T10:37:12;3.30;;;3.10;;
40595;SDS011;26304;48.794;9.820;2022-07-29T10:43:02;3.40;;;3.20;;
40595;SDS011;26304;48.794;9.820;2022-07-29T10:49:06;3.67;;;3.47;;
40595;SDS011;26304;48.794;9.820;2022-07-29T10:54:50;3.13;;;2.92;;
40595;SDS011;26304;48.794;9.820;2022-07-29T11:00:35;3.35;;;3.15;;
40595;SDS011;26304;48.794;9.820;2022-07-29T11:06:18;3.00;;;2.80;;
40595;SDS011;26304;48.794;9.820;2022-07-29T11:12:00;2.90;;;2.80;;
40595;SDS011;26304;48.794;9.820;2022-07-29T11:23:55;3.42;;;3.13;;
40595;SDS011;26304;48.794;9.820;2022-07-29T11:29:54;3.50;;;3.30;;
40595;SDS011;26304;48.794;9.820;2022-07-29T11:35:39;2.90;;;2.70;;
40595;SDS011;26304;48.794;9.820;2022-07-29T11:41:22;3.45;;;2.97;;
40595;SDS011;26304;48.794;9.820;2022-07-29T11:47:06;3.58;;;3.13;;
40595;SDS011;26304;48.794;9.820;2022-07-29T11:52:51;2.80;;;2.65;;
40595;SDS011;26304;48.794;9.820;2022-07-29T11:58:34;3.40;;;3.20;;
40595;SDS011;26304;48.794;9.820;2022-07-29T12:04:18;3.47;;;3.28;;
40595;SDS011;26304;48.794;9.820;2022-07-29T12:10:02;3.63;;;3.33;;
40595;SDS011;26304;48.794;9.820;2022-07-29T12:15:51;4.05;;;3.15;;
40595;SDS011;26304;48.794;9.820;2022-07-29T12:21:43;3.08;;;2.88;;
40595;SDS011;26304;48.794;9.820;2022-07-29T12:27:27;3.30;;;3.10;;
40595;SDS011;26304;48.794;9.820;2022-07-29T12:33:14;3.28;;;3.00;;
40595;SDS011;26304;48.794;9.820;2022-07-29T12:38:59;3.08;;;2.88;;
40595;SDS011;26304;48.794;9.820;2022-07-29T12:44:46;3.08;;;2.80;;
40595;SDS011;26304;48.794;9.820;2022-07-29T12:50:29;2.88;;;2.67;;
40595;SDS011;26304;48.794;9.820;2022-07-29T12:56:14;3.28;;;3.08;;
40595;SDS011;26304;48.794;9.820;2022-07-29T13:01:59;3.15;;;2.95;;
40595;SDS011;26304;48.794;9.820;2022-07-29T13:07:42;3.17;;;2.97;;
40595;SDS011;26304;48.794;9.820;2022-07-29T13:13:24;2.88;;;2.67;;
40595;SDS011;26304;48.794;9.820;2022-07-29T13:19:11;3.00;;;2.80;;
40595;SDS011;26304;48.794;9.820;2022-07-29T13:24:54;3.38;;;2.85;;
40595;SDS011;26304;48.794;9.820;2022-07-29T13:30:39;3.10;;;2.90;;
40595;SDS011;26304;48.794;9.820;2022-07-29T13:36:24;2.95;;;2.75;;
40595;SDS011;26304;48.794;9.820;2022-07-29T13:42:07;3.13;;;2.92;;
40595;SDS011;26304;48.794;9.820;2022-07-29T13:47:50;3.20;;;2.83;;
40595;SDS011;26304;48.794;9.820;2022-07-29T13:53:33;4.32;;;2.80;;
40595;SDS011;26304;48.794;9.820;2022-07-29T13:59:16;2.80;;;2.63;;
40595;SDS011;26304;48.794;9.820;2022-07-29T14:04:58;3.00;;;2.80;;
40595;SDS011;26304;48.794;9.820;2022-07-29T14:10:42;3.15;;;2.95;;
40595;SDS011;26304;48.794;9.820;2022-07-29T14:16:25;7.90;;;3.40;;
40595;SDS011;26304;48.794;9.820;2022-07-29T14:22:07;3.75;;;2.90;;
40595;SDS011;26304;48.794;9.820;2022-07-29T14:27:52;3.28;;;3.00;;
40595;SDS011;26304;48.794;9.820;2022-07-29T14:33:35;3.47;;;3.17;;
40595;SDS011;26304;48.794;9.820;2022-07-29T14:39:17;3.20;;;3.00;;
40595;SDS011;26304;48.794;9.820;2022-07-29T14:45:01;2.92;;;2.72;;
40595;SDS011;26304;48.794;9.820;2022-07-29T14:50:43;2.45;;;2.35;;
40595;SDS011;26304;48.794;9.820;2022-07-29T14:56:26;2.67;;;2.47;;
40595;SDS011;26304;48.794;9.820;2022-07-29T15:02:11;2.90;;;2.70;;
40595;SDS011;26304;48.794;9.820;2022-07-29T15:07:54;2.97;;;2.70;;
40595;SDS011;26304;48.794;9.820;2022-07-29T15:13:37;4.80;;;3.13;;
40595;SDS011;26304;48.794;9.820;2022-07-29T15:19:21;3.58;;;3.28;;
40595;SDS011;26304;48.794;9.820;2022-07-29T15:25:03;4.00;;;2.75;;
40595;SDS011;26304;48.794;9.820;2022-07-29T15:30:46;3.38;;;3.08;;
40595;SDS011;26304;48.794;9.820;2022-07-29T15:36:30;2.88;;;2.67;;
40595;SDS011;26304;48.794;9.820;2022-07-29T15:42:13;3.25;;;2.95;;
40595;SDS011;26304;48.794;9.820;2022-07-29T15:47:55;3.20;;;3.00;;
40595;SDS011;26304;48.794;9.820;2022-07-29T15:53:39;3.85;;;2.90;;
40595;SDS011;26304;48.794;9.820;2022-07-29T15:59:22;3.53;;;3.33;;
40595;SDS011;26304;48.794;9.820;2022-07-29T16:05:04;3.42;;;3.17;;
40595;SDS011;26304;48.794;9.820;2022-07-29T16:10:49;3.60;;;3.30;;
40595;SDS011;26304;48.794;9.820;2022-07-29T16:16:31;3.35;;;3.15;;
40595;SDS011;26304;48.794;9.820;2022-07-29T16:22:14;15.80;;;7.55;;
40595;SDS011;26304;48.794;9.820;2022-07-29T16:27:57;3.97;;;3.60;;
40595;SDS011;26304;48.794;9.820;2022-07-29T16:33:40;3.60;;;3.33;;
40595;SDS011;26304;48.794;9.820;2022-07-29T16:39:22;3.17;;;2.90;;
40595;SDS011;26304;48.794;9.820;2022-07-29T16:45:07;4.53;;;3.33;;
40595;SDS011;26304;48.794;9.820;2022-07-29T16:50:50;3.17;;;2.97;;
40595;SDS011;26304;48.794;9.820;2022-07-29T16:56:32;3.72;;;3.45;;
40595;SDS011;26304;48.794;9.820;2022-07-29T17:02:17;3.78;;;3.45;;
40595;SDS011;26304;48.794;9.820;2022-07-29T17:07:59;3.42;;;3.22;;
40595;SDS011;26304;48.794;9.820;2022-07-29T17:13:42;3.80;;;3.50;;
40595;SDS011;26304;48.794;9.820;2022-07-29T17:19:26;3.80;;;3.50;;
40595;SDS011;26304;48.794;9.820;2022-07-29T17:25:09;3.53;;;3.33;;
40595;SDS011;26304;48.794;9.820;2022-07-29T17:30:51;3.67;;;3.38;;
40595;SDS011;26304;48.794;9.820;2022-07-29T17:36:35;3.53;;;3.33;;
40595;SDS011;26304;48.794;9.820;2022-07-29T17:42:17;4.18;;;3.90;;
40595;SDS011;26304;48.794;9.820;2022-07-29T17:48:00;4.18;;;3.75;;
40595;SDS011;26304;48.794;9.820;2022-07-29T17:53:44;4.00;;;3.65;;
40595;SDS011;26304;48.794;9.820;2022-07-29T17:59:26;4.82;;;3.72;;
40595;SDS011;26304;48.794;9.820;2022-07-29T18:05:09;4.50;;;4.20;;
40595;SDS011;26304;48.794;9.820;2022-07-29T18:10:53;4.57;;;4.18;;
40595;SDS011;26304;48.794;9.820;2022-07-29T18:16:35;4.78;;;4.28;;
40595;SDS011;26304;48.794;9.820;2022-07-29T18:22:18;4.15;;;3.75;;
40595;SDS011;26304;48.794;9.820;2022-07-29T18:28:03;4.40;;;4.00;;
40595;SDS011;26304;48.794;9.820;2022-07-29T18:33:46;4.20;;;3.88;;
40595;SDS011;26304;48.794;9.820;2022-07-29T18:39:29;4.20;;;3.90;;
40595;SDS011;26304;48.794;9.820;2022-07-29T18:45:13;3.85;;;3.45;;
40595;SDS011;26304;48.794;9.820;2022-07-29T18:50:55;4.32;;;4.05;;
40595;SDS011;26304;48.794;9.820;2022-07-29T18:56:37;5.13;;;4.25;;
40595;SDS011;26304;48.794;9.820;2022-07-29T19:02:21;8.13;;;3.95;;
40595;SDS011;26304;48.794;9.820;2022-07-29T19:08:04;5.32;;;4.75;;
40595;SDS011;26304;48.794;9.820;2022-07-29T19:13:47;4.18;;;3.88;;
40595;SDS011;26304;48.794;9.820;2022-07-29T19:19:31;4.70;;;4.30;;
40595;SDS011;26304;48.794;9.820;2022-07-29T19:25:13;5.10;;;4.70;;
40595;SDS011;26304;48.794;9.820;2022-07-29T19:30:56;4.95;;;4.55;;
40595;SDS011;26304;48.794;9.820;2022-07-29T19:36:40;4.93;;;4.47;;
40595;SDS011;26304;48.794;9.820;2022-07-29T19:42:22;4.72;;;4.43;;
40595;SDS011;26304;48.794;9.820;2022-07-29T19:48:05;4.97;;;4.60;;
40595;SDS011;26304;48.794;9.820;2022-07-29T19:53:49;5.00;;;4.57;;
40595;SDS011;26304;48.794;9.820;2022-07-29T19:59:32;6.22;;;4.72;;
40595;SDS011;26304;48.794;9.820;2022-07-29T20:05:14;5.68;;;5.18;;
40595;SDS011;26304;48.794;9.820;2022-07-29T20:10:58;5.20;;;4.80;;
40595;SDS011;26304;48.794;9.820;2022-07-29T20:16:41;5.28;;;4.80;;
40595;SDS011;26304;48.794;9.820;2022-07-29T20:22:23;4.90;;;4.50;;
40595;SDS011;26304;48.794;9.820;2022-07-29T20:28:07;5.00;;;4.60;;
40595;SDS011;26304;48.794;9.820;2022-07-29T20:33:49;5.30;;;4.90;;
40595;SDS011;26304;48.794;9.820;2022-07-29T20:39:32;5.00;;;4.60;;
40595;SDS011;26304;48.794;9.820;2022-07-29T20:45:15;5.00;;;4.60;;
40595;SDS011;26304;48.794;9.820;2022-07-29T20:50:59;4.75;;;4.35;;
40595;SDS011;26304;48.794;9.820;2022-07-29T20:56:42;4.38;;;4.07;;
40595;SDS011;26304;48.794;9.820;2022-07-29T21:02:26;3.85;;;3.65;;
40595;SDS011;26304;48.794;9.820;2022-07-29T21:08:08;4.53;;;4.18;;
40595;SDS011;26304;48.794;9.820;2022-07-29T21:13:51;4.35;;;3.95;;
40595;SDS011;26304;48.794;9.820;2022-07-29T21:19:35;4.28;;;3.88;;
40595;SDS011;26304;48.794;9.820;2022-07-29T21:25:17;4.05;;;3.70;;
40595;SDS011;26304;48.794;9.820;2022-07-29T21:31:00;3.85;;;3.55;;
40595;SDS011;26304;48.794;9.820;2022-07-29T21:36:45;4.47;;;4.18;;
40595;SDS011;26304;48.794;9.820;2022-07-29T21:42:28;4.18;;;3.80;;
40595;SDS011;26304;48.794;9.820;2022-07-29T21:48:10;4.82;;;4.50;;
40595;SDS011;26304;48.794;9.820;2022-07-29T21:53:54;3.97;;;3.78;;
40595;SDS011;26304;48.794;9.820;2022-07-29T21:59:36;4.95;;;4.57;;
40595;SDS011;26304;48.794;9.820;2022-07-29T22:05:19;6.07;;;4.55;;
40595;SDS011;26304;48.794;9.820;2022-07-29T22:11:03;4.57;;;4.28;;
40595;SDS011;26304;48.794;9.820;2022-07-29T22:16:46;4.57;;;4.28;;
40595;SDS011;26304;48.794;9.820;2022-07-29T22:22:29;4.25;;;3.95;;
40595;SDS011;26304;48.794;9.820;2022-07-29T22:28:12;4.38;;;4.07;;
40595;SDS011;26304;48.794;9.820;2022-07-29T22:33:55;4.80;;;4.13;;
40595;SDS011;26304;48.794;9.820;2022-07-29T22:39:37;4.45;;;4.15;;
40595;SDS011;26304;48.794;9.820;2022-07-29T22:45:21;4.68;;;4.32;;
40595;SDS011;26304;48.794;9.820;2022-07-29T22:51:04;4.15;;;3.85;;
40595;SDS011;26304;48.794;9.820;2022-07-29T22:56:46;3.85;;;3.65;;
40595;SDS011;26304;48.794;9.820;2022-07-29T23:02:30;5.53;;;5.13;;
40595;SDS011;26304;48.794;9.820;2022-07-29T23:08:13;5.63;;;5.20;;
40595;SDS011;26304;48.794;9.820;2022-07-29T23:13:55;5.53;;;5.10;;
40595;SDS011;26304;48.794;9.820;2022-07-29T23:19:39;5.10;;;4.70;;
40595;SDS011;26304;48.794;9.820;2022-07-29T23:25:22;5.53;;;4.88;;
40595;SDS011;26304;48.794;9.820;2022-07-29T23:31:04;4.93;;;4.63;;
40595;SDS011;26304;48.794;9.820;2022-07-29T23:36:48;4.57;;;4.25;;
40595;SDS011;26304;48.794;9.820;2022-07-29T23:42:30;5.43;;;5.03;;
40595;SDS011;26304;48.794;9.820;2022-07-29T23:48:13;4.70;;;4.40;;
40595;SDS011;26304;48.794;9.820;2022-07-29T23:53:57;5.00;;;4.70;;
40595;SDS011;26304;48.794;9.820;2022-07-29T23:59:39;5.38;;;4.97;;
